sensor_id;sensor_type;location;lat;lon;timestamp;P1;durP1;ratioP1;P2;durP2;ratioP2
50231;SDS011;36118;56.468;84.952;2023-08-17T00:01:28;1.15;;;0.40;;
50231;SDS011;36118;56.468;84.952;2023-08-17T00:06:31;1.48;;;0.32;;
50231;SDS011;36118;56.468;84.952;2023-08-17T00:11:35;1.70;;;0.50;;
50231;SDS011;36118;56.468;84.952;2023-08-17T00:16:38;1.75;;;0.60;;
50231;SDS011;36118;56.468;84.952;2023-08-17T00:21:41;1.65;;;0.50;;
50231;SDS011;36118;56.468;84.952;2023-08-17T00:26:46;1.30;;;0.50;;
50231;SDS011;36118;56.468;84.952;2023-08-17T00:31:48;1.60;;;0.60;;
50231;SDS011;36118;56.468;84.952;2023-08-17T00:36:52;1.27;;;0.43;;
50231;SDS011;36118;56.468;84.952;2023-08-17T00:41:55;2.50;;;0.50;;
50231;SDS011;36118;56.468;84.952;2023-08-17T00:46:58;1.20;;;0.47;;
50231;SDS011;36118;56.468;84.952;2023-08-17T00:52:01;2.05;;;0.47;;
50231;SDS011;36118;56.468;84.952;2023-08-17T00:57:04;2.53;;;0.63;;
50231;SDS011;36118;56.468;84.952;2023-08-17T01:02:08;1.10;;;0.52;;
50231;SDS011;36118;56.468;84.952;2023-08-17T01:07:11;2.42;;;0.90;;
50231;SDS011;36118;56.468;84.952;2023-08-17T01:12:23;1.90;;;0.77;;
50231;SDS011;36118;56.468;84.952;2023-08-17T01:17:33;1.25;;;0.60;;
50231;SDS011;36118;56.468;84.952;2023-08-17T01:22:41;0.90;;;0.40;;
50231;SDS011;36118;56.468;84.952;2023-08-17T01:27:47;1.25;;;0.50;;
50231;SDS011;36118;56.468;84.952;2023-08-17T01:38:12;2.65;;;0.60;;
50231;SDS011;36118;56.468;84.952;2023-08-17T01:43:19;1.52;;;0.60;;
50231;SDS011;36118;56.468;84.952;2023-08-17T01:48:23;1.67;;;0.65;;
50231;SDS011;36118;56.468;84.952;2023-08-17T01:53:26;3.85;;;1.20;;
50231;SDS011;36118;56.468;84.952;2023-08-17T01:58:29;1.92;;;0.90;;
50231;SDS011;36118;56.468;84.952;2023-08-17T02:03:32;2.50;;;0.90;;
50231;SDS011;36118;56.468;84.952;2023-08-17T02:08:37;3.20;;;0.80;;
50231;SDS011;36118;56.468;84.952;2023-08-17T02:13:41;2.35;;;1.00;;
50231;SDS011;36118;56.468;84.952;2023-08-17T02:18:44;4.55;;;2.03;;
50231;SDS011;36118;56.468;84.952;2023-08-17T02:23:47;1.73;;;0.55;;
50231;SDS011;36118;56.468;84.952;2023-08-17T02:28:50;2.10;;;1.15;;
50231;SDS011;36118;56.468;84.952;2023-08-17T02:33:53;1.23;;;0.50;;
50231;SDS011;36118;56.468;84.952;2023-08-17T02:39:00;1.70;;;0.68;;
50231;SDS011;36118;56.468;84.952;2023-08-17T02:44:05;2.42;;;0.88;;
50231;SDS011;36118;56.468;84.952;2023-08-17T02:49:09;0.98;;;0.50;;
50231;SDS011;36118;56.468;84.952;2023-08-17T02:54:12;1.20;;;0.45;;
50231;SDS011;36118;56.468;84.952;2023-08-17T02:59:16;1.15;;;0.40;;
50231;SDS011;36118;56.468;84.952;2023-08-17T03:04:20;1.63;;;0.50;;
50231;SDS011;36118;56.468;84.952;2023-08-17T03:09:24;1.67;;;0.50;;
50231;SDS011;36118;56.468;84.952;2023-08-17T03:14:27;1.38;;;0.60;;
50231;SDS011;36118;56.468;84.952;2023-08-17T03:19:30;2.08;;;0.90;;
50231;SDS011;36118;56.468;84.952;2023-08-17T03:24:34;3.58;;;0.70;;
50231;SDS011;36118;56.468;84.952;2023-08-17T03:29:37;3.08;;;0.60;;
50231;SDS011;36118;56.468;84.952;2023-08-17T03:34:40;1.40;;;0.45;;
50231;SDS011;36118;56.468;84.952;2023-08-17T03:39:45;2.65;;;0.60;;
50231;SDS011;36118;56.468;84.952;2023-08-17T03:44:49;1.88;;;0.60;;
50231;SDS011;36118;56.468;84.952;2023-08-17T03:49:53;1.33;;;0.60;;
50231;SDS011;36118;56.468;84.952;2023-08-17T03:54:57;2.35;;;0.70;;
50231;SDS011;36118;56.468;84.952;2023-08-17T04:00:01;2.15;;;0.47;;
50231;SDS011;36118;56.468;84.952;2023-08-17T04:05:14;1.05;;;0.38;;
50231;SDS011;36118;56.468;84.952;2023-08-17T04:10:18;2.75;;;0.50;;
50231;SDS011;36118;56.468;84.952;2023-08-17T04:15:22;0.93;;;0.30;;
50231;SDS011;36118;56.468;84.952;2023-08-17T04:20:25;1.52;;;0.40;;
50231;SDS011;36118;56.468;84.952;2023-08-17T04:25:29;1.17;;;0.30;;
50231;SDS011;36118;56.468;84.952;2023-08-17T04:30:33;2.03;;;0.50;;
50231;SDS011;36118;56.468;84.952;2023-08-17T04:35:37;2.63;;;0.65;;
50231;SDS011;36118;56.468;84.952;2023-08-17T04:40:42;1.17;;;0.30;;
50231;SDS011;36118;56.468;84.952;2023-08-17T04:45:46;1.13;;;0.40;;
50231;SDS011;36118;56.468;84.952;2023-08-17T04:50:51;0.57;;;0.20;;
50231;SDS011;36118;56.468;84.952;2023-08-17T04:55:54;0.52;;;0.28;;
50231;SDS011;36118;56.468;84.952;2023-08-17T05:00:59;1.15;;;0.40;;
50231;SDS011;36118;56.468;84.952;2023-08-17T05:06:02;1.50;;;0.43;;
50231;SDS011;36118;56.468;84.952;2023-08-17T05:11:07;1.25;;;0.50;;
50231;SDS011;36118;56.468;84.952;2023-08-17T05:16:11;2.33;;;0.60;;
50231;SDS011;36118;56.468;84.952;2023-08-17T05:21:14;2.10;;;0.70;;
50231;SDS011;36118;56.468;84.952;2023-08-17T05:26:17;3.63;;;1.00;;
50231;SDS011;36118;56.468;84.952;2023-08-17T05:31:21;3.47;;;1.52;;
50231;SDS011;36118;56.468;84.952;2023-08-17T05:36:26;3.25;;;1.50;;
50231;SDS011;36118;56.468;84.952;2023-08-17T05:41:29;2.10;;;1.00;;
50231;SDS011;36118;56.468;84.952;2023-08-17T05:46:32;1.98;;;1.10;;
50231;SDS011;36118;56.468;84.952;2023-08-17T05:51:36;4.63;;;2.00;;
50231;SDS011;36118;56.468;84.952;2023-08-17T05:56:39;4.53;;;2.50;;
50231;SDS011;36118;56.468;84.952;2023-08-17T06:01:47;3.25;;;2.10;;
50231;SDS011;36118;56.468;84.952;2023-08-17T06:06:50;3.70;;;2.08;;
50231;SDS011;36118;56.468;84.952;2023-08-17T06:11:54;3.67;;;1.60;;
50231;SDS011;36118;56.468;84.952;2023-08-17T06:16:58;2.30;;;1.50;;
50231;SDS011;36118;56.468;84.952;2023-08-17T06:22:01;3.28;;;1.40;;
50231;SDS011;36118;56.468;84.952;2023-08-17T06:27:04;2.65;;;1.33;;
50231;SDS011;36118;56.468;84.952;2023-08-17T06:32:08;3.33;;;1.20;;
50231;SDS011;36118;56.468;84.952;2023-08-17T06:37:11;2.55;;;1.30;;
50231;SDS011;36118;56.468;84.952;2023-08-17T06:42:16;4.03;;;1.17;;
50231;SDS011;36118;56.468;84.952;2023-08-17T06:47:20;1.75;;;1.00;;
50231;SDS011;36118;56.468;84.952;2023-08-17T06:52:23;4.72;;;3.15;;
50231;SDS011;36118;56.468;84.952;2023-08-17T06:57:27;3.65;;;1.48;;
50231;SDS011;36118;56.468;84.952;2023-08-17T07:02:31;3.15;;;1.20;;
50231;SDS011;36118;56.468;84.952;2023-08-17T07:07:52;4.18;;;1.65;;
50231;SDS011;36118;56.468;84.952;2023-08-17T07:12:55;3.92;;;1.30;;
50231;SDS011;36118;56.468;84.952;2023-08-17T07:17:58;4.15;;;1.20;;
50231;SDS011;36118;56.468;84.952;2023-08-17T07:23:02;2.95;;;1.20;;
50231;SDS011;36118;56.468;84.952;2023-08-17T07:28:05;2.28;;;1.25;;
50231;SDS011;36118;56.468;84.952;2023-08-17T07:33:08;2.88;;;1.10;;
50231;SDS011;36118;56.468;84.952;2023-08-17T07:38:12;2.40;;;1.27;;
50231;SDS011;36118;56.468;84.952;2023-08-17T07:43:16;2.42;;;1.40;;
50231;SDS011;36118;56.468;84.952;2023-08-17T07:48:20;4.28;;;2.10;;
50231;SDS011;36118;56.468;84.952;2023-08-17T07:53:23;3.40;;;1.60;;
50231;SDS011;36118;56.468;84.952;2023-08-17T07:58:26;2.50;;;1.50;;
50231;SDS011;36118;56.468;84.952;2023-08-17T08:03:29;3.55;;;1.83;;
50231;SDS011;36118;56.468;84.952;2023-08-17T08:08:32;3.40;;;1.38;;
50231;SDS011;36118;56.468;84.952;2023-08-17T08:13:35;4.45;;;1.73;;
50231;SDS011;36118;56.468;84.952;2023-08-17T08:18:38;4.47;;;1.70;;
50231;SDS011;36118;56.468;84.952;2023-08-17T08:23:41;3.50;;;1.83;;
50231;SDS011;36118;56.468;84.952;2023-08-17T08:28:44;3.92;;;1.73;;
50231;SDS011;36118;56.468;84.952;2023-08-17T08:33:47;2.55;;;1.63;;
50231;SDS011;36118;56.468;84.952;2023-08-17T08:38:51;6.70;;;1.83;;
50231;SDS011;36118;56.468;84.952;2023-08-17T08:43:54;4.25;;;1.67;;
50231;SDS011;36118;56.468;84.952;2023-08-17T08:48:57;4.60;;;1.40;;
50231;SDS011;36118;56.468;84.952;2023-08-17T08:54:01;6.03;;;1.85;;
50231;SDS011;36118;56.468;84.952;2023-08-17T08:59:11;3.47;;;1.73;;
50231;SDS011;36118;56.468;84.952;2023-08-17T09:04:14;5.18;;;1.80;;
50231;SDS011;36118;56.468;84.952;2023-08-17T09:09:18;3.90;;;1.65;;
50231;SDS011;36118;56.468;84.952;2023-08-17T09:14:21;4.20;;;1.50;;
50231;SDS011;36118;56.468;84.952;2023-08-17T09:19:24;3.53;;;1.60;;
50231;SDS011;36118;56.468;84.952;2023-08-17T09:24:35;3.67;;;1.92;;
50231;SDS011;36118;56.468;84.952;2023-08-17T09:29:40;3.88;;;2.33;;
50231;SDS011;36118;56.468;84.952;2023-08-17T09:34:45;7.53;;;3.50;;
50231;SDS011;36118;56.468;84.952;2023-08-17T09:39:50;5.20;;;3.60;;
50231;SDS011;36118;56.468;84.952;2023-08-17T09:44:53;7.28;;;2.63;;
50231;SDS011;36118;56.468;84.952;2023-08-17T09:49:57;4.55;;;2.17;;
50231;SDS011;36118;56.468;84.952;2023-08-17T09:55:00;2.63;;;1.48;;
50231;SDS011;36118;56.468;84.952;2023-08-17T10:00:09;3.13;;;1.63;;
50231;SDS011;36118;56.468;84.952;2023-08-17T10:05:13;3.13;;;2.00;;
50231;SDS011;36118;56.468;84.952;2023-08-17T10:10:26;4.30;;;2.35;;
50231;SDS011;36118;56.468;84.952;2023-08-17T10:15:29;3.67;;;2.00;;
50231;SDS011;36118;56.468;84.952;2023-08-17T10:20:33;3.13;;;2.38;;
50231;SDS011;36118;56.468;84.952;2023-08-17T10:25:38;2.70;;;1.55;;
50231;SDS011;36118;56.468;84.952;2023-08-17T10:30:42;3.75;;;2.15;;
50231;SDS011;36118;56.468;84.952;2023-08-17T10:35:45;3.15;;;2.20;;
50231;SDS011;36118;56.468;84.952;2023-08-17T10:46:32;2.80;;;1.83;;
50231;SDS011;36118;56.468;84.952;2023-08-17T10:51:37;2.72;;;1.75;;
50231;SDS011;36118;56.468;84.952;2023-08-17T10:56:46;3.22;;;1.52;;
50231;SDS011;36118;56.468;84.952;2023-08-17T11:01:48;3.55;;;1.67;;
50231;SDS011;36118;56.468;84.952;2023-08-17T11:07:00;3.53;;;1.80;;
50231;SDS011;36118;56.468;84.952;2023-08-17T11:12:06;3.88;;;1.67;;
50231;SDS011;36118;56.468;84.952;2023-08-17T11:17:28;3.65;;;1.70;;
50231;SDS011;36118;56.468;84.952;2023-08-17T11:22:31;3.35;;;1.70;;
50231;SDS011;36118;56.468;84.952;2023-08-17T11:27:34;3.45;;;1.70;;
50231;SDS011;36118;56.468;84.952;2023-08-17T11:32:40;4.47;;;2.00;;
50231;SDS011;36118;56.468;84.952;2023-08-17T11:37:44;4.03;;;2.10;;
50231;SDS011;36118;56.468;84.952;2023-08-17T11:42:48;3.00;;;1.60;;
50231;SDS011;36118;56.468;84.952;2023-08-17T11:47:52;6.93;;;2.00;;
50231;SDS011;36118;56.468;84.952;2023-08-17T11:52:58;3.35;;;1.92;;
50231;SDS011;36118;56.468;84.952;2023-08-17T11:58:03;5.35;;;2.70;;
50231;SDS011;36118;56.468;84.952;2023-08-17T12:03:14;5.20;;;2.25;;
50231;SDS011;36118;56.468;84.952;2023-08-17T12:08:18;4.30;;;2.10;;
50231;SDS011;36118;56.468;84.952;2023-08-17T12:13:32;4.07;;;1.95;;
50231;SDS011;36118;56.468;84.952;2023-08-17T12:18:37;4.70;;;2.55;;
50231;SDS011;36118;56.468;84.952;2023-08-17T12:23:41;5.63;;;2.28;;
50231;SDS011;36118;56.468;84.952;2023-08-17T12:28:46;6.07;;;2.50;;
50231;SDS011;36118;56.468;84.952;2023-08-17T12:33:50;3.80;;;2.30;;
50231;SDS011;36118;56.468;84.952;2023-08-17T12:38:55;5.60;;;2.60;;
50231;SDS011;36118;56.468;84.952;2023-08-17T12:43:58;6.63;;;2.75;;
50231;SDS011;36118;56.468;84.952;2023-08-17T12:49:01;8.63;;;2.58;;
50231;SDS011;36118;56.468;84.952;2023-08-17T12:54:04;4.50;;;2.72;;
50231;SDS011;36118;56.468;84.952;2023-08-17T12:59:07;6.07;;;3.60;;
50231;SDS011;36118;56.468;84.952;2023-08-17T13:04:11;5.88;;;3.88;;
50231;SDS011;36118;56.468;84.952;2023-08-17T13:09:15;7.05;;;3.80;;
50231;SDS011;36118;56.468;84.952;2023-08-17T13:14:21;5.00;;;3.45;;
50231;SDS011;36118;56.468;84.952;2023-08-17T13:19:26;8.30;;;4.40;;
50231;SDS011;36118;56.468;84.952;2023-08-17T13:24:30;9.73;;;7.25;;
50231;SDS011;36118;56.468;84.952;2023-08-17T13:29:34;9.75;;;7.00;;
50231;SDS011;36118;56.468;84.952;2023-08-17T13:34:38;12.38;;;7.65;;
50231;SDS011;36118;56.468;84.952;2023-08-17T13:39:42;9.38;;;6.30;;
50231;SDS011;36118;56.468;84.952;2023-08-17T13:49:50;7.75;;;5.78;;
50231;SDS011;36118;56.468;84.952;2023-08-17T13:54:53;8.30;;;5.53;;
50231;SDS011;36118;56.468;84.952;2023-08-17T13:59:57;8.15;;;5.53;;
50231;SDS011;36118;56.468;84.952;2023-08-17T14:05:01;6.75;;;4.43;;
50231;SDS011;36118;56.468;84.952;2023-08-17T14:10:04;6.35;;;4.65;;
50231;SDS011;36118;56.468;84.952;2023-08-17T14:15:13;5.55;;;4.05;;
50231;SDS011;36118;56.468;84.952;2023-08-17T14:20:16;7.05;;;4.53;;
50231;SDS011;36118;56.468;84.952;2023-08-17T14:25:20;7.93;;;4.28;;
50231;SDS011;36118;56.468;84.952;2023-08-17T14:30:24;5.85;;;4.57;;
50231;SDS011;36118;56.468;84.952;2023-08-17T14:35:29;8.82;;;4.45;;
50231;SDS011;36118;56.468;84.952;2023-08-17T14:40:32;5.57;;;4.40;;
50231;SDS011;36118;56.468;84.952;2023-08-17T14:45:36;7.47;;;4.60;;
50231;SDS011;36118;56.468;84.952;2023-08-17T14:50:39;7.30;;;5.15;;
50231;SDS011;36118;56.468;84.952;2023-08-17T14:55:43;9.63;;;5.72;;
50231;SDS011;36118;56.468;84.952;2023-08-17T15:00:51;8.55;;;5.63;;
50231;SDS011;36118;56.468;84.952;2023-08-17T15:05:55;9.18;;;6.20;;
50231;SDS011;36118;56.468;84.952;2023-08-17T15:10:59;11.20;;;5.82;;
50231;SDS011;36118;56.468;84.952;2023-08-17T15:16:05;13.80;;;8.30;;
50231;SDS011;36118;56.468;84.952;2023-08-17T15:21:10;9.60;;;6.40;;
50231;SDS011;36118;56.468;84.952;2023-08-17T15:26:13;12.82;;;7.75;;
50231;SDS011;36118;56.468;84.952;2023-08-17T15:31:18;10.97;;;6.90;;
50231;SDS011;36118;56.468;84.952;2023-08-17T15:36:22;9.50;;;7.65;;
50231;SDS011;36118;56.468;84.952;2023-08-17T15:41:26;12.02;;;8.43;;
50231;SDS011;36118;56.468;84.952;2023-08-17T15:46:30;12.07;;;8.88;;
50231;SDS011;36118;56.468;84.952;2023-08-17T15:51:35;14.13;;;9.20;;
50231;SDS011;36118;56.468;84.952;2023-08-17T15:56:38;16.20;;;10.65;;
50231;SDS011;36118;56.468;84.952;2023-08-17T16:01:43;13.50;;;10.05;;
50231;SDS011;36118;56.468;84.952;2023-08-17T16:06:46;16.33;;;10.80;;
50231;SDS011;36118;56.468;84.952;2023-08-17T16:11:49;15.95;;;12.13;;
50231;SDS011;36118;56.468;84.952;2023-08-17T16:16:52;15.90;;;11.88;;
50231;SDS011;36118;56.468;84.952;2023-08-17T16:21:58;14.65;;;11.02;;
50231;SDS011;36118;56.468;84.952;2023-08-17T16:27:01;15.15;;;11.48;;
50231;SDS011;36118;56.468;84.952;2023-08-17T16:32:05;15.30;;;11.00;;
50231;SDS011;36118;56.468;84.952;2023-08-17T16:37:24;15.55;;;11.13;;
50231;SDS011;36118;56.468;84.952;2023-08-17T16:42:28;16.50;;;11.00;;
50231;SDS011;36118;56.468;84.952;2023-08-17T16:47:31;16.13;;;10.50;;
50231;SDS011;36118;56.468;84.952;2023-08-17T16:52:34;15.50;;;10.73;;
50231;SDS011;36118;56.468;84.952;2023-08-17T16:57:40;15.52;;;11.15;;
50231;SDS011;36118;56.468;84.952;2023-08-17T17:02:43;14.10;;;10.50;;
50231;SDS011;36118;56.468;84.952;2023-08-17T17:07:46;16.00;;;10.38;;
50231;SDS011;36118;56.468;84.952;2023-08-17T17:12:49;13.75;;;10.90;;
50231;SDS011;36118;56.468;84.952;2023-08-17T17:17:52;14.48;;;10.50;;
50231;SDS011;36118;56.468;84.952;2023-08-17T17:22:56;15.85;;;11.18;;
50231;SDS011;36118;56.468;84.952;2023-08-17T17:27:59;16.20;;;10.73;;
50231;SDS011;36118;56.468;84.952;2023-08-17T17:33:02;15.02;;;11.75;;
50231;SDS011;36118;56.468;84.952;2023-08-17T17:38:05;15.27;;;11.02;;
50231;SDS011;36118;56.468;84.952;2023-08-17T17:43:09;15.95;;;11.45;;
50231;SDS011;36118;56.468;84.952;2023-08-17T17:48:12;16.65;;;11.07;;
50231;SDS011;36118;56.468;84.952;2023-08-17T17:53:14;14.18;;;11.45;;
50231;SDS011;36118;56.468;84.952;2023-08-17T17:58:17;16.05;;;10.65;;
50231;SDS011;36118;56.468;84.952;2023-08-17T18:03:20;16.20;;;10.48;;
50231;SDS011;36118;56.468;84.952;2023-08-17T18:08:23;14.05;;;10.35;;
50231;SDS011;36118;56.468;84.952;2023-08-17T18:13:28;13.10;;;10.23;;
50231;SDS011;36118;56.468;84.952;2023-08-17T18:18:31;15.25;;;10.43;;
50231;SDS011;36118;56.468;84.952;2023-08-17T18:23:39;12.27;;;9.73;;
50231;SDS011;36118;56.468;84.952;2023-08-17T18:28:42;14.98;;;10.77;;
50231;SDS011;36118;56.468;84.952;2023-08-17T18:33:45;13.30;;;9.75;;
50231;SDS011;36118;56.468;84.952;2023-08-17T18:38:48;14.20;;;10.15;;
50231;SDS011;36118;56.468;84.952;2023-08-17T18:43:52;13.25;;;10.43;;
50231;SDS011;36118;56.468;84.952;2023-08-17T18:48:54;15.00;;;10.57;;
50231;SDS011;36118;56.468;84.952;2023-08-17T18:53:58;14.45;;;9.80;;
50231;SDS011;36118;56.468;84.952;2023-08-17T18:59:02;14.00;;;10.27;;
50231;SDS011;36118;56.468;84.952;2023-08-17T19:04:06;16.42;;;9.82;;
50231;SDS011;36118;56.468;84.952;2023-08-17T19:09:11;11.95;;;9.32;;
50231;SDS011;36118;56.468;84.952;2023-08-17T19:14:14;14.82;;;10.23;;
50231;SDS011;36118;56.468;84.952;2023-08-17T19:19:17;14.48;;;10.15;;
50231;SDS011;36118;56.468;84.952;2023-08-17T19:24:21;13.27;;;10.40;;
50231;SDS011;36118;56.468;84.952;2023-08-17T19:29:24;15.20;;;10.90;;
50231;SDS011;36118;56.468;84.952;2023-08-17T19:34:28;14.93;;;10.90;;
50231;SDS011;36118;56.468;84.952;2023-08-17T19:39:31;14.57;;;10.35;;
50231;SDS011;36118;56.468;84.952;2023-08-17T19:44:35;16.75;;;10.43;;
50231;SDS011;36118;56.468;84.952;2023-08-17T19:49:38;17.98;;;9.98;;
50231;SDS011;36118;56.468;84.952;2023-08-17T19:54:42;14.77;;;10.52;;
50231;SDS011;36118;56.468;84.952;2023-08-17T19:59:49;14.40;;;10.43;;
50231;SDS011;36118;56.468;84.952;2023-08-17T20:04:52;13.68;;;10.57;;
50231;SDS011;36118;56.468;84.952;2023-08-17T20:09:55;16.05;;;10.85;;
50231;SDS011;36118;56.468;84.952;2023-08-17T20:14:58;16.50;;;11.00;;
50231;SDS011;36118;56.468;84.952;2023-08-17T20:20:00;15.88;;;11.10;;
50231;SDS011;36118;56.468;84.952;2023-08-17T20:25:04;15.48;;;11.00;;
50231;SDS011;36118;56.468;84.952;2023-08-17T20:30:07;16.00;;;11.80;;
50231;SDS011;36118;56.468;84.952;2023-08-17T20:35:11;19.38;;;12.18;;
50231;SDS011;36118;56.468;84.952;2023-08-17T20:40:14;18.75;;;11.60;;
50231;SDS011;36118;56.468;84.952;2023-08-17T20:45:17;17.83;;;11.90;;
50231;SDS011;36118;56.468;84.952;2023-08-17T20:50:21;18.80;;;12.63;;
50231;SDS011;36118;56.468;84.952;2023-08-17T20:55:24;16.63;;;12.52;;
50231;SDS011;36118;56.468;84.952;2023-08-17T21:00:27;18.83;;;12.32;;
50231;SDS011;36118;56.468;84.952;2023-08-17T21:05:31;17.50;;;11.88;;
50231;SDS011;36118;56.468;84.952;2023-08-17T21:10:34;19.48;;;12.77;;
50231;SDS011;36118;56.468;84.952;2023-08-17T21:15:37;22.52;;;13.55;;
50231;SDS011;36118;56.468;84.952;2023-08-17T21:20:40;21.17;;;13.20;;
50231;SDS011;36118;56.468;84.952;2023-08-17T21:25:48;21.30;;;13.45;;
50231;SDS011;36118;56.468;84.952;2023-08-17T21:30:51;22.80;;;13.80;;
50231;SDS011;36118;56.468;84.952;2023-08-17T21:35:56;20.83;;;12.98;;
50231;SDS011;36118;56.468;84.952;2023-08-17T21:41:00;24.90;;;14.38;;
50231;SDS011;36118;56.468;84.952;2023-08-17T21:46:04;20.80;;;13.45;;
50231;SDS011;36118;56.468;84.952;2023-08-17T21:51:07;27.63;;;14.52;;
50231;SDS011;36118;56.468;84.952;2023-08-17T21:56:10;22.48;;;13.60;;
50231;SDS011;36118;56.468;84.952;2023-08-17T22:01:13;28.02;;;15.65;;
50231;SDS011;36118;56.468;84.952;2023-08-17T22:06:16;26.65;;;13.32;;
50231;SDS011;36118;56.468;84.952;2023-08-17T22:11:21;28.65;;;15.30;;
50231;SDS011;36118;56.468;84.952;2023-08-17T22:16:24;26.85;;;15.05;;
50231;SDS011;36118;56.468;84.952;2023-08-17T22:21:28;29.25;;;15.35;;
50231;SDS011;36118;56.468;84.952;2023-08-17T22:26:32;25.45;;;14.98;;
50231;SDS011;36118;56.468;84.952;2023-08-17T22:31:35;27.30;;;15.90;;
50231;SDS011;36118;56.468;84.952;2023-08-17T22:36:38;26.67;;;16.45;;
50231;SDS011;36118;56.468;84.952;2023-08-17T22:41:41;28.30;;;15.85;;
50231;SDS011;36118;56.468;84.952;2023-08-17T22:46:46;29.52;;;15.57;;
50231;SDS011;36118;56.468;84.952;2023-08-17T22:51:49;26.70;;;15.68;;
50231;SDS011;36118;56.468;84.952;2023-08-17T22:56:55;28.50;;;15.75;;
50231;SDS011;36118;56.468;84.952;2023-08-17T23:01:58;30.65;;;15.00;;
50231;SDS011;36118;56.468;84.952;2023-08-17T23:07:03;26.23;;;15.17;;
50231;SDS011;36118;56.468;84.952;2023-08-17T23:12:07;28.13;;;16.52;;
50231;SDS011;36118;56.468;84.952;2023-08-17T23:17:11;24.38;;;15.55;;
50231;SDS011;36118;56.468;84.952;2023-08-17T23:22:14;27.27;;;15.52;;
50231;SDS011;36118;56.468;84.952;2023-08-17T23:27:17;25.95;;;14.93;;
50231;SDS011;36118;56.468;84.952;2023-08-17T23:32:20;24.80;;;15.65;;
50231;SDS011;36118;56.468;84.952;2023-08-17T23:37:30;22.40;;;15.13;;
50231;SDS011;36118;56.468;84.952;2023-08-17T23:42:33;27.52;;;14.77;;
50231;SDS011;36118;56.468;84.952;2023-08-17T23:47:36;25.25;;;15.88;;
50231;SDS011;36118;56.468;84.952;2023-08-17T23:52:39;25.92;;;15.60;;
50231;SDS011;36118;56.468;84.952;2023-08-17T23:57:42;24.17;;;14.95;;
